sensor_id;sensor_type;location;lat;lon;timestamp;P1;durP1;ratioP1;P2;durP2;ratioP2
9288;SDS011;4683;50.864;12.086;2023-11-19T00:01:04;2.60;;;2.40;;
9288;SDS011;4683;50.864;12.086;2023-11-19T00:03:35;2.17;;;2.07;;
9288;SDS011;4683;50.864;12.086;2023-11-19T00:06:04;2.30;;;2.10;;
9288;SDS011;4683;50.864;12.086;2023-11-19T00:08:35;1.40;;;1.30;;
9288;SDS011;4683;50.864;12.086;2023-11-19T00:11:04;1.93;;;1.83;;
9288;SDS011;4683;50.864;12.086;2023-11-19T00:13:34;1.57;;;1.47;;
9288;SDS011;4683;50.864;12.086;2023-11-19T00:16:03;1.40;;;1.30;;
9288;SDS011;4683;50.864;12.086;2023-11-19T00:18:38;1.67;;;1.57;;
9288;SDS011;4683;50.864;12.086;2023-11-19T00:21:08;1.77;;;1.67;;
9288;SDS011;4683;50.864;12.086;2023-11-19T00:23:38;2.33;;;1.97;;
9288;SDS011;4683;50.864;12.086;2023-11-19T00:26:07;2.13;;;1.53;;
9288;SDS011;4683;50.864;12.086;2023-11-19T00:28:37;1.47;;;1.37;;
9288;SDS011;4683;50.864;12.086;2023-11-19T00:31:05;1.03;;;1.03;;
9288;SDS011;4683;50.864;12.086;2023-11-19T00:33:36;1.60;;;1.50;;
9288;SDS011;4683;50.864;12.086;2023-11-19T00:36:07;1.50;;;1.40;;
9288;SDS011;4683;50.864;12.086;2023-11-19T00:38:37;1.20;;;1.20;;
9288;SDS011;4683;50.864;12.086;2023-11-19T00:41:06;1.20;;;1.10;;
9288;SDS011;4683;50.864;12.086;2023-11-19T00:43:36;1.40;;;1.30;;
9288;SDS011;4683;50.864;12.086;2023-11-19T00:46:07;1.43;;;1.37;;
9288;SDS011;4683;50.864;12.086;2023-11-19T00:48:38;1.00;;;1.00;;
9288;SDS011;4683;50.864;12.086;2023-11-19T00:51:08;0.77;;;0.77;;
9288;SDS011;4683;50.864;12.086;2023-11-19T00:53:42;0.80;;;0.80;;
9288;SDS011;4683;50.864;12.086;2023-11-19T00:56:10;1.10;;;1.10;;
9288;SDS011;4683;50.864;12.086;2023-11-19T00:58:40;1.03;;;1.03;;
9288;SDS011;4683;50.864;12.086;2023-11-19T01:01:08;1.10;;;1.10;;
9288;SDS011;4683;50.864;12.086;2023-11-19T01:03:40;1.30;;;1.30;;
9288;SDS011;4683;50.864;12.086;2023-11-19T01:06:08;1.47;;;1.10;;
9288;SDS011;4683;50.864;12.086;2023-11-19T01:08:42;1.00;;;1.00;;
9288;SDS011;4683;50.864;12.086;2023-11-19T01:11:19;1.00;;;0.90;;
9288;SDS011;4683;50.864;12.086;2023-11-19T01:13:49;1.13;;;1.13;;
9288;SDS011;4683;50.864;12.086;2023-11-19T01:16:17;1.13;;;1.10;;
9288;SDS011;4683;50.864;12.086;2023-11-19T01:18:48;1.00;;;1.00;;
9288;SDS011;4683;50.864;12.086;2023-11-19T01:21:16;2.30;;;1.40;;
9288;SDS011;4683;50.864;12.086;2023-11-19T01:23:45;1.10;;;1.03;;
9288;SDS011;4683;50.864;12.086;2023-11-19T01:26:14;1.30;;;1.20;;
9288;SDS011;4683;50.864;12.086;2023-11-19T01:28:42;1.07;;;1.07;;
9288;SDS011;4683;50.864;12.086;2023-11-19T01:31:15;1.33;;;1.23;;
9288;SDS011;4683;50.864;12.086;2023-11-19T01:33:44;0.93;;;0.93;;
9288;SDS011;4683;50.864;12.086;2023-11-19T01:36:14;1.40;;;1.00;;
9288;SDS011;4683;50.864;12.086;2023-11-19T01:38:42;1.40;;;1.30;;
9288;SDS011;4683;50.864;12.086;2023-11-19T01:41:11;1.47;;;1.37;;
9288;SDS011;4683;50.864;12.086;2023-11-19T01:43:39;0.90;;;0.90;;
9288;SDS011;4683;50.864;12.086;2023-11-19T01:46:08;1.60;;;1.40;;
9288;SDS011;4683;50.864;12.086;2023-11-19T01:48:39;1.47;;;1.40;;
9288;SDS011;4683;50.864;12.086;2023-11-19T01:51:10;1.37;;;1.27;;
9288;SDS011;4683;50.864;12.086;2023-11-19T01:53:43;1.47;;;1.23;;
9288;SDS011;4683;50.864;12.086;2023-11-19T02:00:19;1.27;;;1.20;;
9288;SDS011;4683;50.864;12.086;2023-11-19T02:02:48;1.50;;;1.40;;
9288;SDS011;4683;50.864;12.086;2023-11-19T02:05:17;1.00;;;1.00;;
9288;SDS011;4683;50.864;12.086;2023-11-19T02:07:48;1.10;;;1.10;;
9288;SDS011;4683;50.864;12.086;2023-11-19T02:10:18;0.77;;;0.77;;
9288;SDS011;4683;50.864;12.086;2023-11-19T02:12:47;1.10;;;1.10;;
9288;SDS011;4683;50.864;12.086;2023-11-19T02:15:18;1.07;;;1.07;;
9288;SDS011;4683;50.864;12.086;2023-11-19T02:17:50;1.90;;;1.07;;
9288;SDS011;4683;50.864;12.086;2023-11-19T02:20:20;0.80;;;0.80;;
9288;SDS011;4683;50.864;12.086;2023-11-19T02:22:50;1.63;;;0.93;;
9288;SDS011;4683;50.864;12.086;2023-11-19T02:25:20;1.03;;;1.00;;
9288;SDS011;4683;50.864;12.086;2023-11-19T02:28:00;1.33;;;1.23;;
9288;SDS011;4683;50.864;12.086;2023-11-19T02:30:31;1.20;;;1.20;;
9288;SDS011;4683;50.864;12.086;2023-11-19T02:33:00;0.80;;;0.80;;
9288;SDS011;4683;50.864;12.086;2023-11-19T02:35:32;0.60;;;0.60;;
9288;SDS011;4683;50.864;12.086;2023-11-19T02:38:02;1.33;;;0.80;;
9288;SDS011;4683;50.864;12.086;2023-11-19T02:40:34;0.83;;;0.83;;
9288;SDS011;4683;50.864;12.086;2023-11-19T02:43:05;0.70;;;0.70;;
9288;SDS011;4683;50.864;12.086;2023-11-19T02:45:34;0.70;;;0.70;;
9288;SDS011;4683;50.864;12.086;2023-11-19T02:48:05;0.90;;;0.90;;
9288;SDS011;4683;50.864;12.086;2023-11-19T02:50:36;0.70;;;0.70;;
9288;SDS011;4683;50.864;12.086;2023-11-19T02:53:06;1.63;;;0.87;;
9288;SDS011;4683;50.864;12.086;2023-11-19T02:55:35;0.70;;;0.70;;
9288;SDS011;4683;50.864;12.086;2023-11-19T02:58:08;0.93;;;0.87;;
9288;SDS011;4683;50.864;12.086;2023-11-19T03:00:46;0.90;;;0.90;;
9288;SDS011;4683;50.864;12.086;2023-11-19T03:03:35;0.77;;;0.77;;
9288;SDS011;4683;50.864;12.086;2023-11-19T03:06:07;0.57;;;0.57;;
9288;SDS011;4683;50.864;12.086;2023-11-19T03:08:36;0.70;;;0.70;;
9288;SDS011;4683;50.864;12.086;2023-11-19T03:11:05;0.77;;;0.70;;
9288;SDS011;4683;50.864;12.086;2023-11-19T03:13:37;1.33;;;0.67;;
9288;SDS011;4683;50.864;12.086;2023-11-19T03:16:08;0.73;;;0.73;;
9288;SDS011;4683;50.864;12.086;2023-11-19T03:18:37;0.50;;;0.50;;
9288;SDS011;4683;50.864;12.086;2023-11-19T03:21:06;0.50;;;0.50;;
9288;SDS011;4683;50.864;12.086;2023-11-19T03:23:35;0.60;;;0.60;;
9288;SDS011;4683;50.864;12.086;2023-11-19T03:26:07;0.43;;;0.43;;
9288;SDS011;4683;50.864;12.086;2023-11-19T03:28:38;0.60;;;0.60;;
9288;SDS011;4683;50.864;12.086;2023-11-19T03:31:06;0.60;;;0.60;;
9288;SDS011;4683;50.864;12.086;2023-11-19T03:33:35;0.77;;;0.77;;
9288;SDS011;4683;50.864;12.086;2023-11-19T03:36:05;0.50;;;0.50;;
9288;SDS011;4683;50.864;12.086;2023-11-19T03:38:37;0.50;;;0.50;;
9288;SDS011;4683;50.864;12.086;2023-11-19T03:41:11;0.50;;;0.50;;
9288;SDS011;4683;50.864;12.086;2023-11-19T03:43:45;0.40;;;0.40;;
9288;SDS011;4683;50.864;12.086;2023-11-19T03:46:17;0.50;;;0.50;;
9288;SDS011;4683;50.864;12.086;2023-11-19T03:48:47;0.77;;;0.60;;
9288;SDS011;4683;50.864;12.086;2023-11-19T03:51:19;0.40;;;0.40;;
9288;SDS011;4683;50.864;12.086;2023-11-19T03:53:48;0.40;;;0.40;;
9288;SDS011;4683;50.864;12.086;2023-11-19T03:56:17;0.33;;;0.33;;
9288;SDS011;4683;50.864;12.086;2023-11-19T03:58:48;1.37;;;0.47;;
9288;SDS011;4683;50.864;12.086;2023-11-19T04:01:19;0.53;;;0.53;;
9288;SDS011;4683;50.864;12.086;2023-11-19T04:03:49;0.50;;;0.50;;
9288;SDS011;4683;50.864;12.086;2023-11-19T04:06:21;0.70;;;0.40;;
9288;SDS011;4683;50.864;12.086;2023-11-19T04:08:51;0.30;;;0.30;;
9288;SDS011;4683;50.864;12.086;2023-11-19T04:15:28;0.50;;;0.50;;
9288;SDS011;4683;50.864;12.086;2023-11-19T04:17:58;0.30;;;0.30;;
9288;SDS011;4683;50.864;12.086;2023-11-19T04:20:28;0.30;;;0.30;;
9288;SDS011;4683;50.864;12.086;2023-11-19T04:22:58;0.50;;;0.50;;
9288;SDS011;4683;50.864;12.086;2023-11-19T04:25:28;0.40;;;0.40;;
9288;SDS011;4683;50.864;12.086;2023-11-19T04:27:56;2.43;;;0.73;;
9288;SDS011;4683;50.864;12.086;2023-11-19T04:30:29;0.73;;;0.53;;
9288;SDS011;4683;50.864;12.086;2023-11-19T04:32:59;0.97;;;0.40;;
9288;SDS011;4683;50.864;12.086;2023-11-19T04:35:28;0.50;;;0.30;;
9288;SDS011;4683;50.864;12.086;2023-11-19T04:37:56;0.20;;;0.20;;
9288;SDS011;4683;50.864;12.086;2023-11-19T04:40:25;0.23;;;0.23;;
9288;SDS011;4683;50.864;12.086;2023-11-19T04:43:06;0.40;;;0.30;;
9288;SDS011;4683;50.864;12.086;2023-11-19T04:45:38;0.43;;;0.43;;
9288;SDS011;4683;50.864;12.086;2023-11-19T04:48:15;0.50;;;0.50;;
9288;SDS011;4683;50.864;12.086;2023-11-19T04:50:44;0.40;;;0.40;;
9288;SDS011;4683;50.864;12.086;2023-11-19T04:53:12;0.33;;;0.33;;
9288;SDS011;4683;50.864;12.086;2023-11-19T04:55:41;0.40;;;0.30;;
9288;SDS011;4683;50.864;12.086;2023-11-19T04:58:11;0.13;;;0.13;;
9288;SDS011;4683;50.864;12.086;2023-11-19T05:00:41;0.30;;;0.23;;
9288;SDS011;4683;50.864;12.086;2023-11-19T05:03:11;0.47;;;0.47;;
9288;SDS011;4683;50.864;12.086;2023-11-19T05:05:41;0.77;;;0.30;;
9288;SDS011;4683;50.864;12.086;2023-11-19T05:08:11;0.20;;;0.20;;
9288;SDS011;4683;50.864;12.086;2023-11-19T05:10:40;0.30;;;0.10;;
9288;SDS011;4683;50.864;12.086;2023-11-19T05:13:10;0.30;;;0.30;;
9288;SDS011;4683;50.864;12.086;2023-11-19T05:15:39;0.17;;;0.17;;
9288;SDS011;4683;50.864;12.086;2023-11-19T05:18:10;0.30;;;0.30;;
9288;SDS011;4683;50.864;12.086;2023-11-19T05:20:39;0.27;;;0.23;;
9288;SDS011;4683;50.864;12.086;2023-11-19T05:23:08;0.10;;;0.10;;
9288;SDS011;4683;50.864;12.086;2023-11-19T05:25:38;0.40;;;0.40;;
9288;SDS011;4683;50.864;12.086;2023-11-19T05:28:06;0.20;;;0.20;;
9288;SDS011;4683;50.864;12.086;2023-11-19T05:30:41;0.30;;;0.30;;
9288;SDS011;4683;50.864;12.086;2023-11-19T05:33:12;0.40;;;0.30;;
9288;SDS011;4683;50.864;12.086;2023-11-19T05:35:42;0.30;;;0.30;;
9288;SDS011;4683;50.864;12.086;2023-11-19T05:38:10;0.23;;;0.10;;
9288;SDS011;4683;50.864;12.086;2023-11-19T05:40:41;0.60;;;0.10;;
9288;SDS011;4683;50.864;12.086;2023-11-19T05:43:10;0.10;;;0.10;;
9288;SDS011;4683;50.864;12.086;2023-11-19T05:45:38;0.00;;;0.00;;
9288;SDS011;4683;50.864;12.086;2023-11-19T05:48:09;0.10;;;0.10;;
9288;SDS011;4683;50.864;12.086;2023-11-19T05:50:40;0.20;;;0.20;;
9288;SDS011;4683;50.864;12.086;2023-11-19T05:53:10;0.40;;;0.20;;
9288;SDS011;4683;50.864;12.086;2023-11-19T05:55:42;0.13;;;0.13;;
9288;SDS011;4683;50.864;12.086;2023-11-19T05:58:13;0.20;;;0.20;;
9288;SDS011;4683;50.864;12.086;2023-11-19T06:00:43;0.23;;;0.10;;
9288;SDS011;4683;50.864;12.086;2023-11-19T06:03:19;0.10;;;0.10;;
9288;SDS011;4683;50.864;12.086;2023-11-19T06:05:48;0.10;;;0.10;;
9288;SDS011;4683;50.864;12.086;2023-11-19T06:08:18;1.37;;;1.20;;
9288;SDS011;4683;50.864;12.086;2023-11-19T06:10:49;1.00;;;0.33;;
9288;SDS011;4683;50.864;12.086;2023-11-19T06:13:22;0.20;;;0.20;;
9288;SDS011;4683;50.864;12.086;2023-11-19T06:15:51;0.47;;;0.40;;
9288;SDS011;4683;50.864;12.086;2023-11-19T06:18:23;0.00;;;0.00;;
9288;SDS011;4683;50.864;12.086;2023-11-19T06:20:51;0.47;;;0.13;;
9288;SDS011;4683;50.864;12.086;2023-11-19T06:23:20;0.40;;;0.40;;
9288;SDS011;4683;50.864;12.086;2023-11-19T06:25:49;0.40;;;0.40;;
9288;SDS011;4683;50.864;12.086;2023-11-19T06:28:18;0.13;;;0.13;;
9288;SDS011;4683;50.864;12.086;2023-11-19T06:30:47;0.47;;;0.47;;
9288;SDS011;4683;50.864;12.086;2023-11-19T06:33:18;1.70;;;1.60;;
9288;SDS011;4683;50.864;12.086;2023-11-19T06:35:48;0.30;;;0.30;;
9288;SDS011;4683;50.864;12.086;2023-11-19T06:38:17;0.50;;;0.50;;
9288;SDS011;4683;50.864;12.086;2023-11-19T06:40:48;1.40;;;0.80;;
9288;SDS011;4683;50.864;12.086;2023-11-19T06:43:19;1.33;;;0.47;;
9288;SDS011;4683;50.864;12.086;2023-11-19T06:45:49;1.37;;;0.77;;
9288;SDS011;4683;50.864;12.086;2023-11-19T06:48:17;0.50;;;0.50;;
9288;SDS011;4683;50.864;12.086;2023-11-19T06:50:47;0.20;;;0.20;;
9288;SDS011;4683;50.864;12.086;2023-11-19T06:53:16;0.60;;;0.60;;
9288;SDS011;4683;50.864;12.086;2023-11-19T06:55:45;0.40;;;0.40;;
9288;SDS011;4683;50.864;12.086;2023-11-19T06:58:13;0.30;;;0.30;;
9288;SDS011;4683;50.864;12.086;2023-11-19T07:00:44;0.20;;;0.20;;
9288;SDS011;4683;50.864;12.086;2023-11-19T07:03:15;0.40;;;0.30;;
9288;SDS011;4683;50.864;12.086;2023-11-19T07:05:48;1.67;;;1.63;;
9288;SDS011;4683;50.864;12.086;2023-11-19T07:08:18;3.80;;;3.50;;
9288;SDS011;4683;50.864;12.086;2023-11-19T07:10:46;4.50;;;4.10;;
9288;SDS011;4683;50.864;12.086;2023-11-19T07:13:15;8.10;;;6.43;;
9288;SDS011;4683;50.864;12.086;2023-11-19T07:15:44;7.73;;;6.23;;
9288;SDS011;4683;50.864;12.086;2023-11-19T07:18:18;14.93;;;13.33;;
9288;SDS011;4683;50.864;12.086;2023-11-19T07:24:07;1.77;;;1.57;;
9288;SDS011;4683;50.864;12.086;2023-11-19T07:26:40;1.80;;;1.70;;
9288;SDS011;4683;50.864;12.086;2023-11-19T07:29:12;1.07;;;1.07;;
9288;SDS011;4683;50.864;12.086;2023-11-19T07:31:40;2.33;;;2.23;;
9288;SDS011;4683;50.864;12.086;2023-11-19T07:34:09;0.83;;;0.80;;
9288;SDS011;4683;50.864;12.086;2023-11-19T07:36:42;1.00;;;0.93;;
9288;SDS011;4683;50.864;12.086;2023-11-19T07:39:11;1.73;;;1.63;;
9288;SDS011;4683;50.864;12.086;2023-11-19T07:41:40;1.03;;;0.93;;
9288;SDS011;4683;50.864;12.086;2023-11-19T07:44:10;0.60;;;0.60;;
9288;SDS011;4683;50.864;12.086;2023-11-19T07:46:39;1.47;;;1.37;;
9288;SDS011;4683;50.864;12.086;2023-11-19T07:49:09;1.30;;;1.20;;
9288;SDS011;4683;50.864;12.086;2023-11-19T07:51:40;0.70;;;0.70;;
9288;SDS011;4683;50.864;12.086;2023-11-19T07:54:11;1.27;;;0.97;;
9288;SDS011;4683;50.864;12.086;2023-11-19T07:56:40;2.03;;;1.83;;
9288;SDS011;4683;50.864;12.086;2023-11-19T07:59:09;0.80;;;0.80;;
9288;SDS011;4683;50.864;12.086;2023-11-19T08:01:39;1.10;;;0.90;;
9288;SDS011;4683;50.864;12.086;2023-11-19T08:04:08;2.13;;;1.20;;
9288;SDS011;4683;50.864;12.086;2023-11-19T08:06:38;1.20;;;1.10;;
9288;SDS011;4683;50.864;12.086;2023-11-19T08:09:10;1.47;;;0.70;;
9288;SDS011;4683;50.864;12.086;2023-11-19T08:11:39;1.10;;;1.00;;
9288;SDS011;4683;50.864;12.086;2023-11-19T08:14:09;1.17;;;1.03;;
9288;SDS011;4683;50.864;12.086;2023-11-19T08:16:38;0.60;;;0.57;;
9288;SDS011;4683;50.864;12.086;2023-11-19T08:19:08;1.73;;;0.73;;
9288;SDS011;4683;50.864;12.086;2023-11-19T08:21:38;0.90;;;0.90;;
9288;SDS011;4683;50.864;12.086;2023-11-19T08:24:08;0.87;;;0.87;;
9288;SDS011;4683;50.864;12.086;2023-11-19T08:26:39;1.63;;;1.33;;
9288;SDS011;4683;50.864;12.086;2023-11-19T08:29:08;0.87;;;0.60;;
9288;SDS011;4683;50.864;12.086;2023-11-19T08:31:38;1.93;;;1.13;;
9288;SDS011;4683;50.864;12.086;2023-11-19T08:34:08;2.03;;;1.40;;
9288;SDS011;4683;50.864;12.086;2023-11-19T08:36:41;1.30;;;1.20;;
9288;SDS011;4683;50.864;12.086;2023-11-19T08:39:11;1.90;;;1.70;;
9288;SDS011;4683;50.864;12.086;2023-11-19T08:41:41;1.63;;;0.97;;
9288;SDS011;4683;50.864;12.086;2023-11-19T08:44:10;1.60;;;1.40;;
9288;SDS011;4683;50.864;12.086;2023-11-19T08:46:39;1.93;;;1.63;;
9288;SDS011;4683;50.864;12.086;2023-11-19T08:49:16;1.57;;;1.40;;
9288;SDS011;4683;50.864;12.086;2023-11-19T08:51:48;1.53;;;1.43;;
9288;SDS011;4683;50.864;12.086;2023-11-19T08:54:19;2.13;;;1.40;;
9288;SDS011;4683;50.864;12.086;2023-11-19T08:56:50;2.37;;;1.40;;
9288;SDS011;4683;50.864;12.086;2023-11-19T08:59:18;3.00;;;1.30;;
9288;SDS011;4683;50.864;12.086;2023-11-19T09:01:49;1.90;;;1.10;;
9288;SDS011;4683;50.864;12.086;2023-11-19T09:04:18;2.20;;;2.00;;
9288;SDS011;4683;50.864;12.086;2023-11-19T09:06:48;1.77;;;1.47;;
9288;SDS011;4683;50.864;12.086;2023-11-19T09:09:19;2.63;;;1.50;;
9288;SDS011;4683;50.864;12.086;2023-11-19T09:11:47;1.70;;;1.20;;
9288;SDS011;4683;50.864;12.086;2023-11-19T09:14:18;2.10;;;1.53;;
9288;SDS011;4683;50.864;12.086;2023-11-19T09:16:51;0.80;;;0.70;;
9288;SDS011;4683;50.864;12.086;2023-11-19T09:19:19;1.10;;;1.00;;
9288;SDS011;4683;50.864;12.086;2023-11-19T09:21:49;0.90;;;0.77;;
9288;SDS011;4683;50.864;12.086;2023-11-19T09:24:19;1.60;;;0.80;;
9288;SDS011;4683;50.864;12.086;2023-11-19T09:26:48;0.90;;;0.70;;
9288;SDS011;4683;50.864;12.086;2023-11-19T09:29:18;1.40;;;1.23;;
9288;SDS011;4683;50.864;12.086;2023-11-19T09:31:48;0.67;;;0.67;;
9288;SDS011;4683;50.864;12.086;2023-11-19T09:34:19;2.20;;;2.00;;
9288;SDS011;4683;50.864;12.086;2023-11-19T09:36:49;1.70;;;1.60;;
9288;SDS011;4683;50.864;12.086;2023-11-19T09:39:21;0.97;;;0.97;;
9288;SDS011;4683;50.864;12.086;2023-11-19T09:41:49;0.53;;;0.53;;
9288;SDS011;4683;50.864;12.086;2023-11-19T09:44:20;3.20;;;1.80;;
9288;SDS011;4683;50.864;12.086;2023-11-19T09:46:49;1.37;;;1.27;;
9288;SDS011;4683;50.864;12.086;2023-11-19T09:49:20;1.63;;;0.90;;
9288;SDS011;4683;50.864;12.086;2023-11-19T09:51:52;2.57;;;1.10;;
9288;SDS011;4683;50.864;12.086;2023-11-19T09:54:23;1.27;;;0.90;;
9288;SDS011;4683;50.864;12.086;2023-11-19T09:56:51;1.80;;;1.00;;
9288;SDS011;4683;50.864;12.086;2023-11-19T09:59:20;4.07;;;1.30;;
9288;SDS011;4683;50.864;12.086;2023-11-19T10:01:49;2.50;;;1.07;;
9288;SDS011;4683;50.864;12.086;2023-11-19T10:04:20;1.27;;;0.70;;
9288;SDS011;4683;50.864;12.086;2023-11-19T10:06:51;3.60;;;1.60;;
9288;SDS011;4683;50.864;12.086;2023-11-19T10:09:20;2.93;;;0.90;;
9288;SDS011;4683;50.864;12.086;2023-11-19T10:11:51;2.60;;;1.23;;
9288;SDS011;4683;50.864;12.086;2023-11-19T10:14:23;1.73;;;1.20;;
9288;SDS011;4683;50.864;12.086;2023-11-19T10:17:06;1.47;;;1.13;;
9288;SDS011;4683;50.864;12.086;2023-11-19T10:19:35;2.13;;;1.20;;
9288;SDS011;4683;50.864;12.086;2023-11-19T10:22:07;2.10;;;1.30;;
9288;SDS011;4683;50.864;12.086;2023-11-19T10:24:38;3.80;;;1.57;;
9288;SDS011;4683;50.864;12.086;2023-11-19T10:27:07;1.77;;;1.30;;
9288;SDS011;4683;50.864;12.086;2023-11-19T10:29:36;3.30;;;1.17;;
9288;SDS011;4683;50.864;12.086;2023-11-19T10:32:04;4.40;;;1.77;;
9288;SDS011;4683;50.864;12.086;2023-11-19T10:34:33;4.67;;;1.77;;
9288;SDS011;4683;50.864;12.086;2023-11-19T10:37:04;2.83;;;1.37;;
9288;SDS011;4683;50.864;12.086;2023-11-19T10:42:22;2.47;;;1.50;;
9288;SDS011;4683;50.864;12.086;2023-11-19T10:44:51;4.70;;;2.00;;
9288;SDS011;4683;50.864;12.086;2023-11-19T10:47:20;6.30;;;2.57;;
9288;SDS011;4683;50.864;12.086;2023-11-19T10:49:51;5.60;;;2.27;;
9288;SDS011;4683;50.864;12.086;2023-11-19T10:52:19;7.33;;;2.27;;
9288;SDS011;4683;50.864;12.086;2023-11-19T10:54:49;6.93;;;2.30;;
9288;SDS011;4683;50.864;12.086;2023-11-19T10:57:21;5.37;;;2.40;;
9288;SDS011;4683;50.864;12.086;2023-11-19T11:00:25;6.00;;;2.60;;
9288;SDS011;4683;50.864;12.086;2023-11-19T11:03:19;8.90;;;2.40;;
9288;SDS011;4683;50.864;12.086;2023-11-19T11:06:05;3.87;;;1.77;;
9288;SDS011;4683;50.864;12.086;2023-11-19T11:08:36;5.33;;;2.53;;
9288;SDS011;4683;50.864;12.086;2023-11-19T11:11:07;8.03;;;2.40;;
9288;SDS011;4683;50.864;12.086;2023-11-19T11:13:43;5.00;;;2.57;;
9288;SDS011;4683;50.864;12.086;2023-11-19T11:16:27;6.23;;;2.50;;
9288;SDS011;4683;50.864;12.086;2023-11-19T11:19:02;6.43;;;2.73;;
9288;SDS011;4683;50.864;12.086;2023-11-19T11:21:33;10.67;;;3.00;;
9288;SDS011;4683;50.864;12.086;2023-11-19T11:24:13;8.23;;;2.30;;
9288;SDS011;4683;50.864;12.086;2023-11-19T11:30:35;7.20;;;2.50;;
9288;SDS011;4683;50.864;12.086;2023-11-19T11:33:27;7.47;;;2.50;;
9288;SDS011;4683;50.864;12.086;2023-11-19T11:36:12;5.70;;;1.90;;
9288;SDS011;4683;50.864;12.086;2023-11-19T11:38:49;6.33;;;2.23;;
9288;SDS011;4683;50.864;12.086;2023-11-19T11:41:20;7.20;;;2.63;;
9288;SDS011;4683;50.864;12.086;2023-11-19T11:43:53;8.63;;;2.20;;
9288;SDS011;4683;50.864;12.086;2023-11-19T11:49:24;4.47;;;2.13;;
9288;SDS011;4683;50.864;12.086;2023-11-19T11:52:01;4.70;;;2.20;;
9288;SDS011;4683;50.864;12.086;2023-11-19T11:54:33;3.70;;;1.70;;
9288;SDS011;4683;50.864;12.086;2023-11-19T11:57:06;3.83;;;1.83;;
9288;SDS011;4683;50.864;12.086;2023-11-19T11:59:47;8.17;;;2.53;;
9288;SDS011;4683;50.864;12.086;2023-11-19T12:02:19;5.63;;;2.13;;
9288;SDS011;4683;50.864;12.086;2023-11-19T12:05:07;4.30;;;2.10;;
9288;SDS011;4683;50.864;12.086;2023-11-19T12:07:38;4.23;;;2.43;;
9288;SDS011;4683;50.864;12.086;2023-11-19T12:10:22;3.93;;;2.10;;
9288;SDS011;4683;50.864;12.086;2023-11-19T12:13:18;3.80;;;1.90;;
9288;SDS011;4683;50.864;12.086;2023-11-19T12:16:43;4.50;;;1.90;;
9288;SDS011;4683;50.864;12.086;2023-11-19T12:19:16;5.20;;;1.77;;
9288;SDS011;4683;50.864;12.086;2023-11-19T12:21:46;7.30;;;2.73;;
9288;SDS011;4683;50.864;12.086;2023-11-19T12:24:15;6.40;;;1.80;;
9288;SDS011;4683;50.864;12.086;2023-11-19T12:26:45;7.50;;;2.83;;
9288;SDS011;4683;50.864;12.086;2023-11-19T12:29:19;3.67;;;1.60;;
9288;SDS011;4683;50.864;12.086;2023-11-19T12:31:53;6.17;;;2.03;;
9288;SDS011;4683;50.864;12.086;2023-11-19T12:34:24;4.90;;;2.50;;
9288;SDS011;4683;50.864;12.086;2023-11-19T12:36:55;5.40;;;2.13;;
9288;SDS011;4683;50.864;12.086;2023-11-19T12:39:25;6.43;;;2.63;;
9288;SDS011;4683;50.864;12.086;2023-11-19T12:42:00;3.83;;;2.33;;
9288;SDS011;4683;50.864;12.086;2023-11-19T12:44:30;7.87;;;2.50;;
9288;SDS011;4683;50.864;12.086;2023-11-19T12:47:07;9.70;;;3.07;;
9288;SDS011;4683;50.864;12.086;2023-11-19T12:49:40;9.30;;;2.07;;
9288;SDS011;4683;50.864;12.086;2023-11-19T12:52:12;7.53;;;2.83;;
9288;SDS011;4683;50.864;12.086;2023-11-19T12:54:41;7.73;;;2.37;;
9288;SDS011;4683;50.864;12.086;2023-11-19T12:57:10;5.60;;;2.20;;
9288;SDS011;4683;50.864;12.086;2023-11-19T12:59:39;7.40;;;2.53;;
9288;SDS011;4683;50.864;12.086;2023-11-19T13:02:07;6.40;;;2.30;;
9288;SDS011;4683;50.864;12.086;2023-11-19T13:04:36;3.17;;;2.10;;
9288;SDS011;4683;50.864;12.086;2023-11-19T13:07:09;5.77;;;2.03;;
9288;SDS011;4683;50.864;12.086;2023-11-19T13:09:50;6.13;;;2.47;;
9288;SDS011;4683;50.864;12.086;2023-11-19T13:12:28;4.63;;;2.17;;
9288;SDS011;4683;50.864;12.086;2023-11-19T13:15:03;4.90;;;2.33;;
9288;SDS011;4683;50.864;12.086;2023-11-19T13:17:41;5.53;;;2.20;;
9288;SDS011;4683;50.864;12.086;2023-11-19T13:20:10;7.23;;;3.03;;
9288;SDS011;4683;50.864;12.086;2023-11-19T13:22:54;4.17;;;1.70;;
9288;SDS011;4683;50.864;12.086;2023-11-19T13:25:28;3.57;;;2.50;;
9288;SDS011;4683;50.864;12.086;2023-11-19T13:28:11;6.97;;;2.23;;
9288;SDS011;4683;50.864;12.086;2023-11-19T13:30:46;3.90;;;1.50;;
9288;SDS011;4683;50.864;12.086;2023-11-19T13:33:43;6.00;;;2.40;;
9288;SDS011;4683;50.864;12.086;2023-11-19T13:36:14;4.63;;;2.20;;
9288;SDS011;4683;50.864;12.086;2023-11-19T13:38:50;6.03;;;2.07;;
9288;SDS011;4683;50.864;12.086;2023-11-19T13:41:39;5.57;;;1.90;;
9288;SDS011;4683;50.864;12.086;2023-11-19T13:44:08;5.37;;;1.90;;
9288;SDS011;4683;50.864;12.086;2023-11-19T13:46:36;11.80;;;4.87;;
9288;SDS011;4683;50.864;12.086;2023-11-19T13:49:06;4.87;;;2.23;;
9288;SDS011;4683;50.864;12.086;2023-11-19T13:51:35;5.67;;;2.10;;
9288;SDS011;4683;50.864;12.086;2023-11-19T13:54:05;2.20;;;1.70;;
9288;SDS011;4683;50.864;12.086;2023-11-19T13:56:34;4.27;;;2.17;;
9288;SDS011;4683;50.864;12.086;2023-11-19T13:59:03;7.57;;;2.20;;
9288;SDS011;4683;50.864;12.086;2023-11-19T14:01:36;7.10;;;2.27;;
9288;SDS011;4683;50.864;12.086;2023-11-19T14:04:05;4.80;;;2.20;;
9288;SDS011;4683;50.864;12.086;2023-11-19T14:06:35;5.90;;;2.70;;
9288;SDS011;4683;50.864;12.086;2023-11-19T14:09:07;5.23;;;2.37;;
9288;SDS011;4683;50.864;12.086;2023-11-19T14:11:36;7.23;;;2.57;;
9288;SDS011;4683;50.864;12.086;2023-11-19T14:14:08;7.87;;;2.73;;
9288;SDS011;4683;50.864;12.086;2023-11-19T14:16:36;6.93;;;2.03;;
9288;SDS011;4683;50.864;12.086;2023-11-19T14:19:14;5.97;;;2.50;;
9288;SDS011;4683;50.864;12.086;2023-11-19T14:21:42;6.27;;;2.50;;
9288;SDS011;4683;50.864;12.086;2023-11-19T14:24:14;5.90;;;2.00;;
9288;SDS011;4683;50.864;12.086;2023-11-19T14:26:45;7.47;;;2.43;;
9288;SDS011;4683;50.864;12.086;2023-11-19T14:29:15;5.17;;;2.30;;
9288;SDS011;4683;50.864;12.086;2023-11-19T14:31:45;4.53;;;2.27;;
9288;SDS011;4683;50.864;12.086;2023-11-19T14:34:14;4.43;;;2.33;;
9288;SDS011;4683;50.864;12.086;2023-11-19T14:36:43;4.73;;;1.80;;
9288;SDS011;4683;50.864;12.086;2023-11-19T14:39:11;2.60;;;1.87;;
9288;SDS011;4683;50.864;12.086;2023-11-19T14:41:41;5.27;;;1.53;;
9288;SDS011;4683;50.864;12.086;2023-11-19T14:44:11;7.27;;;2.50;;
9288;SDS011;4683;50.864;12.086;2023-11-19T14:46:50;5.87;;;2.63;;
9288;SDS011;4683;50.864;12.086;2023-11-19T14:49:22;6.73;;;2.43;;
9288;SDS011;4683;50.864;12.086;2023-11-19T14:51:51;4.93;;;2.47;;
9288;SDS011;4683;50.864;12.086;2023-11-19T14:54:19;5.50;;;2.63;;
9288;SDS011;4683;50.864;12.086;2023-11-19T14:56:54;6.80;;;2.77;;
9288;SDS011;4683;50.864;12.086;2023-11-19T14:59:26;7.17;;;2.73;;
9288;SDS011;4683;50.864;12.086;2023-11-19T15:01:56;9.07;;;3.43;;
9288;SDS011;4683;50.864;12.086;2023-11-19T15:04:26;8.00;;;3.63;;
9288;SDS011;4683;50.864;12.086;2023-11-19T15:06:56;10.40;;;3.43;;
9288;SDS011;4683;50.864;12.086;2023-11-19T15:09:26;10.63;;;3.57;;
9288;SDS011;4683;50.864;12.086;2023-11-19T15:11:58;7.63;;;3.00;;
9288;SDS011;4683;50.864;12.086;2023-11-19T15:14:29;8.33;;;3.33;;
9288;SDS011;4683;50.864;12.086;2023-11-19T15:17:01;7.47;;;3.00;;
9288;SDS011;4683;50.864;12.086;2023-11-19T15:19:30;7.00;;;3.10;;
9288;SDS011;4683;50.864;12.086;2023-11-19T15:22:00;7.73;;;4.07;;
9288;SDS011;4683;50.864;12.086;2023-11-19T15:24:31;8.67;;;3.47;;
9288;SDS011;4683;50.864;12.086;2023-11-19T15:27:10;8.43;;;3.93;;
9288;SDS011;4683;50.864;12.086;2023-11-19T15:29:39;8.30;;;3.30;;
9288;SDS011;4683;50.864;12.086;2023-11-19T15:32:07;7.90;;;3.27;;
9288;SDS011;4683;50.864;12.086;2023-11-19T15:34:36;10.40;;;3.33;;
9288;SDS011;4683;50.864;12.086;2023-11-19T15:37:07;8.53;;;3.20;;
9288;SDS011;4683;50.864;12.086;2023-11-19T15:39:39;5.90;;;3.20;;
9288;SDS011;4683;50.864;12.086;2023-11-19T15:42:10;11.03;;;2.83;;
9288;SDS011;4683;50.864;12.086;2023-11-19T15:44:39;7.60;;;2.60;;
9288;SDS011;4683;50.864;12.086;2023-11-19T15:47:10;6.30;;;2.60;;